Time;durP1;ratioP1;P1;durP2;ratioP2;P2;SDS_P1;SDS_P2;PMS_P1;PMS_P2;Temp;Humidity;BMP_temperature;BMP_pressure;BME280_temperature;BME280_humidity;BME280_pressure;Samples;Min_cycle;Max_cycle;Signal;HPM_P1;HPM_P2
2022/06/19 00:01:17;;;;;;;22.40;3.08;;;23.80;67.80;;;;;;6317155;28;20115;-83
2022/06/19 00:04:19;;;;;;;19.98;2.22;;;23.70;68.20;;;;;;6310951;28;20040;-83
2022/06/19 00:07:21;;;;;;;17.15;2.72;;;23.70;68.80;;;;;;6307077;28;20049;-85
2022/06/19 00:10:41;;;;;;;12.73;3.53;;;23.70;69.20;;;;;;6309066;28;20048;-81
2022/06/19 00:13:54;;;;;;;12.68;1.65;;;23.60;69.30;;;;;;6316577;28;20048;-82
2022/06/19 00:17:28;;;;;;;16.80;3.47;;;23.60;69.20;;;;;;6292643;28;20071;-83
2022/06/19 00:20:31;;;;;;;5.95;1.55;;;23.70;70.40;;;;;;6318598;28;20114;-85
2022/06/19 00:23:33;;;;;;;6.95;1.50;;;23.60;70.00;;;;;;6308153;28;20103;-85
2022/06/19 00:26:35;;;;;;;15.55;3.10;;;23.50;70.60;;;;;;6307378;28;20056;-85
2022/06/19 00:29:37;;;;;;;15.57;2.60;;;23.50;71.10;;;;;;6312215;28;20112;-84
2022/06/19 00:32:39;;;;;;;7.10;2.10;;;23.40;71.50;;;;;;6314245;28;20045;-85
2022/06/19 00:35:42;;;;;;;11.88;2.50;;;23.30;72.10;;;;;;6315865;28;20066;-81
2022/06/19 00:38:53;;;;;;;18.17;3.88;;;23.20;72.30;;;;;;6315464;28;20105;-82
2022/06/19 00:42:04;;;;;;;14.15;2.38;;;23.10;72.80;;;;;;6329277;28;20075;-80
2022/06/19 00:45:07;;;;;;;10.45;1.83;;;23.00;73.20;;;;;;6315563;28;20136;-83
2022/06/19 00:48:15;;;;;;;21.13;4.03;;;23.00;73.70;;;;;;6309270;28;20524;-81
2022/06/19 00:51:19;;;;;;;;;;;22.80;74.00;;;;;;6284077;28;20064;-82
2022/06/19 00:54:24;;;;;;;9.48;2.20;;;22.80;75.60;;;;;;6293762;28;19975;-81
2022/06/19 00:57:28;;;;;;;12.88;2.53;;;22.60;75.30;;;;;;6294842;28;20080;-82
2022/06/19 01:00:31;;;;;;;8.00;1.88;;;22.50;75.70;;;;;;6285983;28;20041;-82
2022/06/19 01:03:52;;;;;;;8.82;1.80;;;22.40;76.30;;;;;;6291344;28;20045;-83
2022/06/19 01:06:55;;;;;;;17.05;3.45;;;22.30;77.00;;;;;;6293278;28;20159;-82
2022/06/19 01:09:57;;;;;;;21.52;2.40;;;22.30;77.20;;;;;;6269540;28;20059;-82
2022/06/19 01:13:00;;;;;;;15.82;2.80;;;22.20;77.40;;;;;;6292137;28;20108;-84
2022/06/19 01:16:04;;;;;;;13.10;2.13;;;22.10;77.90;;;;;;6298361;28;20072;-83
2022/06/19 01:19:08;;;;;;;16.20;2.47;;;22.20;77.80;;;;;;6290867;28;20158;-85
2022/06/19 01:22:23;;;;;;;13.15;2.65;;;22.20;77.80;;;;;;6291893;28;20112;-82
2022/06/19 01:25:30;;;;;;;13.20;2.45;;;22.20;77.80;;;;;;6293414;28;20049;-85
2022/06/19 01:28:54;;;;;;;11.45;2.10;;;22.20;77.80;;;;;;6292660;28;20063;-82
2022/06/19 01:31:57;;;;;;;11.60;2.42;;;22.20;78.00;;;;;;6294053;28;20053;-85
2022/06/19 01:35:01;;;;;;;12.07;2.20;;;22.10;78.20;;;;;;6297132;28;20079;-83
2022/06/19 01:38:10;;;;;;;12.00;2.85;;;22.00;78.30;;;;;;6296739;28;20049;-82
2022/06/19 01:41:16;;;;;;;14.10;2.72;;;22.10;79.00;;;;;;6297026;28;20155;-83
2022/06/19 01:44:17;;;;;;;16.52;3.53;;;22.00;79.40;;;;;;6294017;28;20049;-84
2022/06/19 01:47:19;;;;;;;10.27;1.85;;;21.90;79.70;;;;;;6290566;28;20117;-84
2022/06/19 01:50:25;;;;;;;13.23;3.38;;;21.90;80.10;;;;;;6313895;28;20060;-82
2022/06/19 01:53:32;;;;;;;18.15;3.17;;;21.80;80.60;;;;;;6317725;28;20518;-84
2022/06/19 01:56:35;;;;;;;11.52;1.90;;;21.80;81.00;;;;;;6317939;28;20069;-84
2022/06/19 01:59:41;;;;;;;11.85;2.42;;;21.70;81.10;;;;;;6319069;28;20075;-83
2022/06/19 02:02:46;;;;;;;13.82;2.22;;;21.70;81.10;;;;;;6321284;28;20053;-81
2022/06/19 02:05:48;;;;;;;13.27;2.60;;;21.60;81.20;;;;;;6323139;28;20104;-82
2022/06/19 02:08:50;;;;;;;10.35;2.08;;;21.60;81.40;;;;;;6318123;28;20135;-81
2022/06/19 02:11:54;;;;;;;9.50;2.67;;;21.50;81.50;;;;;;6316400;28;20062;-82
2022/06/19 02:14:56;;;;;;;11.20;2.70;;;21.50;81.70;;;;;;6319862;28;20055;-83
2022/06/19 02:18:01;;;;;;;14.52;3.15;;;21.40;82.20;;;;;;6310010;28;20160;-81
2022/06/19 02:21:05;;;;;;;13.15;2.13;;;21.40;82.60;;;;;;6313342;28;20055;-80
2022/06/19 02:24:09;;;;;;;13.43;2.92;;;21.40;82.90;;;;;;6320445;28;20040;-80
2022/06/19 02:27:12;;;;;;;8.70;2.15;;;21.30;83.30;;;;;;6320205;28;20044;-80
2022/06/19 02:30:15;;;;;;;10.50;2.40;;;21.30;83.70;;;;;;6311109;28;20059;-81
2022/06/19 02:33:21;;;;;;;7.88;2.55;;;21.20;84.00;;;;;;6309919;28;20051;-81
2022/06/19 02:36:38;;;;;;;15.85;2.75;;;21.10;84.70;;;;;;6311758;28;20598;-77
2022/06/19 02:39:44;;;;;;;16.20;3.25;;;21.00;85.10;;;;;;6308594;28;20393;-83
2022/06/19 02:42:48;;;;;;;14.50;2.63;;;20.90;85.40;;;;;;6307596;28;20073;-83
2022/06/19 02:49:46;;;;;;;10.75;2.20;;;20.80;85.90;;;;;;6323625;28;20040;-77
2022/06/19 02:52:49;;;;;;;10.18;2.00;;;20.80;86.50;;;;;;6318751;28;20104;-81
2022/06/19 02:55:51;;;;;;;8.60;3.05;;;20.70;86.60;;;;;;6321274;28;20078;-80
2022/06/19 02:58:54;;;;;;;15.85;4.10;;;20.60;86.80;;;;;;6316492;28;20132;-83
2022/06/19 03:01:56;;;;;;;12.82;2.13;;;20.70;87.30;;;;;;6311242;28;20108;-82
2022/06/19 03:05:03;;;;;;;10.80;2.40;;;20.60;87.30;;;;;;6318892;28;20053;-80
2022/06/19 03:08:05;;;;;;;15.13;2.17;;;20.60;87.60;;;;;;6317573;28;20054;-82
2022/06/19 03:11:07;;;;;;;11.50;2.40;;;20.60;87.80;;;;;;6309038;28;20087;-81
2022/06/19 03:14:11;;;;;;;7.60;2.72;;;20.50;87.80;;;;;;6311013;28;20045;-80
2022/06/19 03:17:14;;;;;;;9.27;2.45;;;20.60;87.80;;;;;;6311605;28;20044;-80
2022/06/19 03:20:19;;;;;;;11.77;2.55;;;20.60;87.60;;;;;;6313494;28;20044;-80
2022/06/19 03:23:21;;;;;;;8.93;2.35;;;20.60;87.40;;;;;;6313422;28;20048;-80
2022/06/19 03:26:23;;;;;;;17.27;2.67;;;20.70;87.20;;;;;;6312794;28;20055;-80
2022/06/19 03:29:26;;;;;;;13.32;2.75;;;20.70;87.10;;;;;;6314540;28;20112;-82
2022/06/19 03:32:28;;;;;;;10.02;1.92;;;20.80;87.00;;;;;;6307264;28;20135;-83
2022/06/19 03:35:29;;;;;;;17.67;2.88;;;20.80;87.10;;;;;;6303693;28;20421;-83
2022/06/19 03:38:31;;;;;;;12.90;2.38;;;20.80;87.30;;;;;;6303243;28;20424;-80
2022/06/19 03:41:33;;;;;;;13.43;2.47;;;20.80;87.20;;;;;;6304283;28;20045;-83
2022/06/19 03:44:36;;;;;;;9.77;3.40;;;20.80;87.50;;;;;;6304447;28;20522;-83
2022/06/19 03:47:39;;;;;;;7.72;2.50;;;20.80;87.70;;;;;;6304032;28;20052;-82
2022/06/19 03:50:42;;;;;;;20.25;3.40;;;20.80;87.60;;;;;;6295215;28;20128;-83
2022/06/19 03:53:45;;;;;;;5.80;2.15;;;20.90;87.80;;;;;;6304183;28;20045;-83
2022/06/19 03:56:47;;;;;;;6.45;2.20;;;20.90;87.80;;;;;;6303981;28;20044;-83
2022/06/19 03:59:51;;;;;;;9.82;2.22;;;20.90;87.90;;;;;;6303935;28;20124;-83
2022/06/19 04:02:52;;;;;;;6.80;1.75;;;20.90;87.90;;;;;;6303605;28;20055;-81
2022/06/19 04:05:54;;;;;;;10.65;1.83;;;21.00;87.80;;;;;;6303561;28;20051;-83
2022/06/19 04:08:56;;;;;;;9.55;3.88;;;21.00;87.60;;;;;;6303761;28;20053;-85
2022/06/19 04:11:58;;;;;;;10.63;2.08;;;21.10;87.50;;;;;;6303866;28;20056;-84
2022/06/19 04:15:01;;;;;;;7.30;1.95;;;21.30;87.00;;;;;;6303740;28;20063;-85
2022/06/19 04:18:03;;;;;;;14.63;2.88;;;21.50;86.40;;;;;;6303948;28;20075;-84
2022/06/19 04:21:05;;;;;;;8.98;2.80;;;21.80;85.60;;;;;;6303967;28;20048;-83
2022/06/19 04:24:07;;;;;;;6.50;2.22;;;21.90;84.70;;;;;;6302849;28;20495;-83
2022/06/19 04:27:09;;;;;;;14.27;2.50;;;22.20;83.90;;;;;;6302494;28;20044;-82
2022/06/19 04:30:14;;;;;;;16.52;4.38;;;22.80;82.50;;;;;;6303212;28;20053;-84
2022/06/19 04:33:18;;;;;;;9.00;2.03;;;23.50;80.40;;;;;;6303856;28;20048;-82
2022/06/19 04:36:22;;;;;;;14.98;3.90;;;24.20;78.60;;;;;;6302717;28;20048;-83
2022/06/19 04:39:24;;;;;;;9.23;2.92;;;24.90;76.20;;;;;;6306282;28;20060;-82
2022/06/19 04:42:25;;;;;;;11.25;2.30;;;25.90;73.10;;;;;;6306859;28;20067;-84
2022/06/19 04:45:29;;;;;;;13.43;2.70;;;27.00;70.00;;;;;;6307616;28;20054;-84
2022/06/19 04:48:31;;;;;;;17.92;3.13;;;27.90;67.00;;;;;;6307250;28;20052;-84
2022/06/19 04:51:33;;;;;;;13.50;2.58;;;28.60;64.20;;;;;;6307367;28;20050;-85
2022/06/19 04:54:34;;;;;;;13.65;2.17;;;29.40;61.30;;;;;;6306695;28;20052;-85
2022/06/19 04:57:36;;;;;;;10.95;2.15;;;30.00;59.80;;;;;;6308605;28;20053;-83
2022/06/19 05:00:41;;;;;;;15.25;3.08;;;30.70;57.00;;;;;;6308676;28;20517;-85
2022/06/19 05:03:42;;;;;;;9.60;2.75;;;31.30;54.90;;;;;;6307606;28;20555;-82
2022/06/19 05:06:44;;;;;;;15.15;2.85;;;31.90;53.10;;;;;;6307626;28;20040;-85
2022/06/19 05:09:46;;;;;;;16.77;1.92;;;32.40;52.00;;;;;;6309015;28;20048;-84
2022/06/19 05:12:48;;;;;;;16.58;2.25;;;32.90;50.50;;;;;;6307145;28;20044;-85
2022/06/19 05:16:01;;;;;;;7.25;2.20;;;33.50;49.20;;;;;;6305700;28;20090;-84
2022/06/19 05:19:03;;;;;;;14.05;2.45;;;34.20;48.10;;;;;;6306466;28;20524;-83
2022/06/19 05:22:05;;;;;;;18.15;2.13;;;34.80;46.80;;;;;;6306737;28;20056;-85
2022/06/19 05:25:08;;;;;;;16.77;2.05;;;35.40;45.70;;;;;;6307926;28;20055;-84
2022/06/19 05:28:10;;;;;;;11.90;1.80;;;36.20;44.40;;;;;;6306885;28;20041;-84
2022/06/19 05:31:13;;;;;;;7.30;1.50;;;37.00;43.10;;;;;;6306018;28;20074;-84
2022/06/19 05:34:15;;;;;;;9.68;2.33;;;37.40;42.20;;;;;;6307276;28;20044;-85
2022/06/19 05:37:17;;;;;;;9.35;2.03;;;37.70;41.50;;;;;;6307468;28;20044;-85
2022/06/19 05:40:18;;;;;;;8.68;1.73;;;38.20;40.70;;;;;;6306248;28;20055;-84
2022/06/19 05:43:21;;;;;;;8.90;2.70;;;38.80;39.90;;;;;;6306274;28;20050;-83
2022/06/19 05:46:24;;;;;;;11.65;2.65;;;39.60;39.50;;;;;;6306230;28;20417;-85
2022/06/19 05:49:26;;;;;;;13.95;2.33;;;40.60;37.20;;;;;;6306906;28;20112;-85
2022/06/19 05:52:28;;;;;;;14.80;1.90;;;41.60;35.30;;;;;;6304568;28;20057;-85
2022/06/19 05:55:30;;;;;;;9.73;2.15;;;42.50;33.20;;;;;;6304290;28;20047;-85
2022/06/19 05:58:32;;;;;;;12.48;2.58;;;43.40;32.00;;;;;;6305320;28;20052;-86
2022/06/19 06:01:35;;;;;;;16.75;3.15;;;44.00;31.10;;;;;;6306488;28;20524;-86
2022/06/19 06:04:37;;;;;;;13.75;2.88;;;44.50;30.10;;;;;;6305944;28;20067;-86
2022/06/19 06:07:38;;;;;;;18.77;3.70;;;44.90;29.50;;;;;;6306341;28;20052;-85
2022/06/19 06:10:41;;;;;;;9.55;1.92;;;45.40;29.00;;;;;;6305106;28;20045;-84
2022/06/19 06:13:43;;;;;;;7.60;1.90;;;45.60;28.30;;;;;;6306166;28;20052;-85
2022/06/19 06:16:46;;;;;;;20.77;2.28;;;45.80;28.10;;;;;;6305773;28;20051;-86
2022/06/19 06:19:47;;;;;;;21.42;3.03;;;46.10;27.70;;;;;;6305590;28;20050;-85
2022/06/19 06:22:49;;;;;;;21.33;2.78;;;46.20;27.40;;;;;;6305556;28;20055;-86
2022/06/19 06:25:58;;;;;;;12.65;2.55;;;45.90;27.20;;;;;;6305996;28;20044;-86
2022/06/19 06:29:00;;;;;;;18.92;3.03;;;45.50;27.30;;;;;;6305711;28;20052;-84
2022/06/19 06:32:04;;;;;;;13.20;2.20;;;45.70;27.30;;;;;;6306184;28;20054;-84
2022/06/19 06:35:07;;;;;;;9.45;1.90;;;45.80;27.40;;;;;;6305339;28;20067;-85
2022/06/19 06:38:09;;;;;;;18.48;2.80;;;46.10;27.20;;;;;;6305222;28;20428;-85
2022/06/19 06:41:13;;;;;;;17.38;2.80;;;46.10;27.30;;;;;;6306969;28;20075;-84
2022/06/19 06:44:16;;;;;;;18.02;2.30;;;46.20;27.30;;;;;;6306337;28;20414;-84
2022/06/19 06:47:19;;;;;;;18.45;2.75;;;46.10;27.40;;;;;;6306648;28;20040;-86
2022/06/19 06:50:21;;;;;;;10.25;2.28;;;45.70;27.60;;;;;;6306690;28;20044;-85
2022/06/19 06:53:22;;;;;;;33.72;3.30;;;46.00;27.70;;;;;;6306704;28;20066;-85
2022/06/19 06:56:24;;;;;;;18.73;2.70;;;46.20;27.60;;;;;;6309164;28;20048;-85
2022/06/19 06:59:26;;;;;;;20.80;3.47;;;46.30;27.60;;;;;;6309883;28;20048;-85
2022/06/19 07:02:29;;;;;;;15.15;2.88;;;46.50;27.50;;;;;;6309533;28;20044;-86
2022/06/19 07:05:31;;;;;;;17.58;2.70;;;46.80;27.50;;;;;;6312307;28;20041;-86
2022/06/19 07:08:33;;;;;;;14.65;2.28;;;47.10;27.30;;;;;;6316217;28;20033;-82
2022/06/19 07:11:37;;;;;;;13.40;2.58;;;47.30;27.10;;;;;;6310427;28;20056;-86
2022/06/19 07:14:39;;;;;;;22.83;3.10;;;47.50;27.10;;;;;;6304402;28;20126;-85
2022/06/19 07:17:42;;;;;;;18.10;2.17;;;47.60;26.90;;;;;;6305905;28;20501;-86
2022/06/19 07:20:44;;;;;;;11.55;2.92;;;47.60;27.10;;;;;;6305403;28;20048;-85
2022/06/19 07:23:46;;;;;;;12.55;2.42;;;47.80;27.20;;;;;;6304723;28;20509;-85
2022/06/19 07:26:47;;;;;;;18.90;2.50;;;48.30;27.00;;;;;;6303151;28;20044;-86
2022/06/19 07:29:49;;;;;;;15.45;2.70;;;49.00;26.80;;;;;;6305080;28;20074;-84
2022/06/19 07:32:52;;;;;;;9.23;1.67;;;48.90;26.70;;;;;;6304952;28;20059;-85
2022/06/19 07:35:54;;;;;;;12.35;2.63;;;49.20;26.70;;;;;;6304051;28;20044;-85
2022/06/19 07:38:56;;;;;;;16.02;2.63;;;49.20;26.50;;;;;;6305648;28;20055;-86
2022/06/19 07:41:58;;;;;;;15.00;4.50;;;48.90;26.40;;;;;;6304958;28;20052;-85
2022/06/19 07:44:59;;;;;;;10.27;2.60;;;48.20;26.50;;;;;;6305425;28;20048;-86
2022/06/19 07:51:22;;;;;;;7.10;1.95;;;47.20;26.90;;;;;;6304170;28;20048;-86
2022/06/19 07:54:24;;;;;;;8.70;2.33;;;47.40;26.70;;;;;;6303701;28;20413;-84
2022/06/19 07:57:26;;;;;;;12.57;3.03;;;47.40;26.80;;;;;;6303144;28;20568;-85
2022/06/19 08:00:30;;;;;;;12.27;2.75;;;47.60;26.70;;;;;;6304301;28;20250;-86
2022/06/19 08:03:33;;;;;;;9.27;2.40;;;47.60;26.70;;;;;;6303303;28;20041;-85
2022/06/19 08:06:35;;;;;;;11.95;2.60;;;47.60;26.80;;;;;;6304050;28;20055;-86
2022/06/19 08:09:37;;;;;;;8.75;2.42;;;47.10;26.80;;;;;;6305009;28;20505;-84
2022/06/19 08:12:39;;;;;;;7.90;2.17;;;47.10;26.90;;;;;;6305588;28;20055;-85
2022/06/19 08:15:41;;;;;;;4.68;2.65;;;46.80;26.90;;;;;;6310449;28;20125;-85
2022/06/19 08:18:44;;;;;;;18.58;2.67;;;46.80;26.90;;;;;;6308318;28;20058;-86
2022/06/19 08:21:46;;;;;;;10.13;2.67;;;46.60;26.80;;;;;;6307896;28;20079;-84
2022/06/19 08:24:48;;;;;;;18.17;3.15;;;46.50;26.90;;;;;;6306187;28;20040;-85
2022/06/19 08:27:52;;;;;;;8.27;2.83;;;46.40;26.90;;;;;;6305912;28;20048;-84
2022/06/19 08:30:54;;;;;;;9.23;2.83;;;46.40;26.80;;;;;;6304874;28;20040;-85
2022/06/19 08:33:58;;;;;;;8.38;2.13;;;46.20;26.80;;;;;;6306343;28;20048;-85
2022/06/19 08:37:04;;;;;;;8.38;2.38;;;46.30;26.80;;;;;;6306830;28;20425;-84
2022/06/19 08:40:16;;;;;;;5.57;1.98;;;45.90;27.00;;;;;;6270016;28;20091;-85
2022/06/19 08:43:35;;;;;;;10.30;1.70;;;46.00;27.00;;;;;;6296480;28;20048;-85
2022/06/19 08:46:49;;;;;;;8.90;2.30;;;46.30;26.60;;;;;;6295596;28;20045;-85
2022/06/19 08:50:03;;;;;;;13.45;2.42;;;46.60;26.60;;;;;;6281631;28;20057;-85
2022/06/19 08:53:24;;;;;;;9.63;2.38;;;46.80;26.40;;;;;;6291573;28;20040;-85
2022/06/19 08:56:33;;;;;;;6.68;2.13;;;46.70;25.80;;;;;;6309845;28;20514;-84
2022/06/19 08:59:47;;;;;;;11.48;2.38;;;46.40;26.10;;;;;;6304938;28;20047;-85
2022/06/19 09:03:01;;;;;;;7.13;2.50;;;46.60;26.30;;;;;;6303604;28;20420;-85
2022/06/19 09:06:13;;;;;;;15.48;2.45;;;46.90;26.00;;;;;;6306176;28;20406;-84
2022/06/19 09:09:26;;;;;;;10.35;2.28;;;46.90;26.10;;;;;;6305924;28;20149;-85
2022/06/19 09:12:42;;;;;;;4.82;1.92;;;46.90;25.80;;;;;;6301869;28;20143;-86
2022/06/19 09:15:48;;;;;;;5.68;1.63;;;46.20;26.00;;;;;;6304704;28;20044;-85
2022/06/19 09:18:58;;;;;;;10.40;1.70;;;45.90;25.80;;;;;;6303264;28;20063;-85
2022/06/19 09:22:14;;;;;;;6.00;2.03;;;45.50;26.00;;;;;;6305982;28;20052;-85
2022/06/19 09:25:44;;;;;;;7.35;1.92;;;45.40;26.30;;;;;;6305683;28;20051;-86
2022/06/19 09:28:50;;;;;;;10.80;1.83;;;45.50;26.30;;;;;;6283484;28;20108;-83
2022/06/19 09:31:56;;;;;;;9.93;2.05;;;45.90;26.50;;;;;;6305858;28;20124;-85
2022/06/19 09:35:04;;;;;;;7.13;2.03;;;46.10;26.00;;;;;;6305615;28;20144;-85
2022/06/19 09:38:11;;;;;;;10.93;2.00;;;46.20;26.40;;;;;;6304822;28;20048;-84
2022/06/19 09:41:19;;;;;;;12.25;2.75;;;46.10;25.90;;;;;;6305478;28;20139;-85
2022/06/19 09:44:28;;;;;;;8.60;1.92;;;46.00;26.20;;;;;;6305380;28;20040;-82
2022/06/19 09:47:36;;;;;;;8.43;2.20;;;45.90;26.20;;;;;;6306896;28;20053;-84
2022/06/19 09:50:42;;;;;;;7.53;1.70;;;45.80;26.30;;;;;;6306509;28;20502;-85
2022/06/19 09:53:49;;;;;;;10.00;2.03;;;46.00;26.40;;;;;;6306854;28;20158;-86
2022/06/19 09:56:54;;;;;;;7.63;1.63;;;45.80;26.20;;;;;;6303739;28;20516;-86
2022/06/19 10:00:02;;;;;;;11.18;2.45;;;45.70;26.20;;;;;;6304439;28;20131;-85
2022/06/19 10:03:12;;;;;;;7.50;2.00;;;45.50;27.00;;;;;;6303979;28;20048;-84
2022/06/19 10:06:19;;;;;;;7.03;2.40;;;45.60;26.30;;;;;;6303557;28;20076;-84
2022/06/19 10:09:29;;;;;;;8.45;1.52;;;45.70;26.50;;;;;;6305790;28;20541;-84
2022/06/19 10:12:37;;;;;;;12.02;1.70;;;45.50;26.20;;;;;;6306549;28;20049;-85
2022/06/19 10:15:40;;;;;;;8.48;2.28;;;45.20;26.70;;;;;;6306227;28;20044;-84
2022/06/19 10:18:47;;;;;;;12.05;3.08;;;44.60;26.70;;;;;;6306014;28;20040;-85
2022/06/19 10:22:17;;;;;;;4.82;1.60;;;43.50;27.50;;;;;;6308144;28;20048;-83
2022/06/19 10:25:49;;;;;;;12.38;1.65;;;42.70;28.20;;;;;;6306803;28;20459;-85
2022/06/19 10:29:03;;;;;;;10.05;2.28;;;41.80;28.30;;;;;;6297119;28;20142;-85
2022/06/19 10:32:30;;;;;;;9.48;2.22;;;41.00;29.00;;;;;;6308569;28;20113;-85
2022/06/19 10:35:36;;;;;;;;;;;40.50;29.60;;;;;;6306579;28;20040;-85
2022/06/19 10:38:57;;;;;;;9.88;2.42;;;40.50;29.90;;;;;;6306618;28;19921;-84
2022/06/19 10:42:11;;;;;;;6.13;2.05;;;40.80;29.70;;;;;;6306286;28;20048;-83
2022/06/19 10:45:25;;;;;;;14.65;3.72;;;41.00;29.70;;;;;;6308341;28;20502;-84
2022/06/19 10:48:31;;;;;;;14.80;3.15;;;41.20;29.70;;;;;;6306528;28;20053;-86
2022/06/19 10:51:46;;;;;;;6.67;1.80;;;41.20;30.40;;;;;;6306512;28;20062;-85
2022/06/19 10:55:06;;;;;;;14.18;3.40;;;41.50;29.50;;;;;;6306303;28;20291;-86
2022/06/19 10:58:16;;;;;;;14.38;2.33;;;41.40;29.30;;;;;;6304728;28;20764;-85
2022/06/19 11:04:40;;;;;;;8.50;1.88;;;41.20;29.60;;;;;;6279385;28;20036;-86
2022/06/19 11:07:42;;;;;;;8.07;2.08;;;41.30;29.80;;;;;;6294273;23;20051;-83
2022/06/19 11:10:55;;;;;;;12.93;2.10;;;41.40;29.70;;;;;;6241554;28;20062;-82
2022/06/19 11:14:04;;;;;;;10.15;1.70;;;41.50;29.60;;;;;;6223561;28;20046;-82
2022/06/19 11:17:08;;;;;;;8.45;1.77;;;41.60;29.50;;;;;;6223843;28;20418;-82
2022/06/19 11:20:23;;;;;;;10.32;1.85;;;41.90;29.50;;;;;;6218800;28;20050;-82
2022/06/19 11:23:32;;;;;;;9.13;1.88;;;41.90;28.90;;;;;;6224538;28;20129;-83
2022/06/19 11:26:40;;;;;;;7.53;2.05;;;42.10;29.10;;;;;;6224605;28;20058;-83
2022/06/19 11:29:46;;;;;;;6.43;1.90;;;42.20;29.00;;;;;;6224830;28;20054;-82
2022/06/19 11:32:51;;;;;;;4.03;1.70;;;42.30;28.60;;;;;;6225113;28;20049;-83
2022/06/19 11:35:55;;;;;;;10.32;2.20;;;42.40;28.70;;;;;;6225984;28;20053;-83
2022/06/19 11:38:58;;;;;;;9.48;2.63;;;42.70;28.40;;;;;;6226202;28;20116;-83
2022/06/19 11:42:00;;;;;;;11.27;1.67;;;42.90;28.50;;;;;;6226542;28;20668;-83
2022/06/19 11:45:07;;;;;;;11.75;2.20;;;43.00;28.50;;;;;;6237475;28;20045;-84
2022/06/19 11:48:15;;;;;;;4.45;1.65;;;43.00;28.50;;;;;;6225034;28;20124;-83
2022/06/19 11:51:21;;;;;;;9.73;2.08;;;43.00;28.20;;;;;;6227726;28;20128;-84
2022/06/19 11:54:30;;;;;;;11.70;1.98;;;43.00;28.30;;;;;;6225961;28;20061;-83
2022/06/19 11:57:33;;;;;;;9.93;2.28;;;43.00;28.20;;;;;;6226587;28;20050;-84
2022/06/19 12:00:37;;;;;;;8.35;1.90;;;42.80;28.10;;;;;;6242748;28;20060;-84
2022/06/19 12:03:45;;;;;;;10.52;1.85;;;42.70;28.10;;;;;;6250377;28;20045;-84
2022/06/19 12:06:50;;;;;;;12.30;2.10;;;43.00;28.30;;;;;;6250463;28;20052;-83
2022/06/19 12:09:59;;;;;;;8.73;1.80;;;43.20;28.40;;;;;;6250117;28;20056;-83
2022/06/19 12:13:19;;;;;;;10.25;1.85;;;43.30;28.50;;;;;;6249969;28;20080;-82
2022/06/19 12:16:25;;;;;;;10.20;1.92;;;43.20;28.60;;;;;;6235281;28;20426;-83
2022/06/19 12:19:31;;;;;;;11.60;1.52;;;43.20;28.50;;;;;;6249556;28;20046;-83
2022/06/19 12:22:40;;;;;;;13.15;2.30;;;42.80;28.40;;;;;;6249593;28;20049;-82
2022/06/19 12:25:47;;;;;;;14.43;2.15;;;42.70;28.40;;;;;;6250822;28;20133;-82
2022/06/19 12:28:54;;;;;;;14.45;2.30;;;42.80;28.60;;;;;;6249792;28;20054;-83
2022/06/19 12:32:03;;;;;;;9.18;2.15;;;42.90;28.40;;;;;;6250770;28;20050;-84
2022/06/19 12:35:13;;;;;;;7.78;2.05;;;43.00;28.60;;;;;;6250677;28;20053;-84
2022/06/19 12:39:35;;;;;;;10.95;2.35;;;43.10;28.20;;;;;;6254159;28;20053;-84
2022/06/19 12:43:23;;;;;;;8.10;2.33;;;43.00;27.50;;;;;;6251811;28;20105;-84
2022/06/19 12:46:48;;;;;;;6.30;1.77;;;42.90;28.30;;;;;;6242637;28;20095;-85
2022/06/19 12:50:25;;;;;;;6.38;1.75;;;43.10;27.70;;;;;;6261879;28;20055;-84
2022/06/19 12:53:44;;;;;;;12.50;1.95;;;43.30;27.90;;;;;;6264930;28;20081;-85
2022/06/19 12:57:11;;;;;;;8.32;2.28;;;43.50;27.70;;;;;;6256556;28;20172;-84
2022/06/19 13:00:19;;;;;;;;;;;43.30;27.60;;;;;;6257693;28;20055;-85
2022/06/19 13:03:39;;;;;;;11.93;2.13;;;43.30;27.90;;;;;;6259200;28;19927;-84
2022/06/19 13:06:57;;;;;;;14.55;2.22;;;43.30;27.50;;;;;;6256958;28;20049;-84
2022/06/19 13:10:21;;;;;;;8.52;1.83;;;43.30;26.80;;;;;;6257900;28;20096;-84
2022/06/19 13:13:38;;;;;;;10.52;1.80;;;43.20;26.90;;;;;;6257809;28;20113;-85
2022/06/19 13:16:51;;;;;;;8.20;1.98;;;43.00;26.70;;;;;;6242474;28;20218;-85
2022/06/19 13:20:03;;;;;;;11.10;2.08;;;42.70;26.40;;;;;;6242963;28;20056;-85
2022/06/19 13:23:24;;;;;;;11.02;2.35;;;42.50;26.40;;;;;;6236590;28;20046;-85
2022/06/19 13:27:18;;;;;;;9.93;2.03;;;42.30;26.50;;;;;;6232253;28;20042;-85
2022/06/19 13:30:25;;;;;;;13.07;2.30;;;42.40;26.90;;;;;;6235872;28;20042;-85
2022/06/19 13:33:56;;;;;;;8.73;1.48;;;42.30;26.90;;;;;;6235858;28;20054;-85
2022/06/19 13:37:07;;;;;;;10.27;2.28;;;42.40;26.80;;;;;;6257722;28;20091;-86
2022/06/19 13:40:18;;;;;;;8.60;1.27;;;42.50;26.90;;;;;;6268023;28;20109;-86
2022/06/19 13:43:32;;;;;;;9.70;1.38;;;42.60;26.80;;;;;;6260290;28;20148;-84
2022/06/19 13:46:40;;;;;;;11.80;1.65;;;42.70;26.50;;;;;;6248903;28;20128;-84
2022/06/19 13:49:55;;;;;;;8.25;1.65;;;42.90;26.80;;;;;;6264022;28;20495;-85
2022/06/19 13:53:48;;;;;;;7.82;1.75;;;42.90;26.50;;;;;;6258300;28;20057;-84
2022/06/19 13:56:58;;;;;;;8.90;1.75;;;42.60;26.50;;;;;;6245785;28;20042;-84
2022/06/19 14:00:21;;;;;;;10.50;1.50;;;42.50;26.80;;;;;;6264327;28;20041;-85
2022/06/19 14:07:55;;;;;;;12.35;1.80;;;42.50;26.90;;;;;;6246990;28;20049;-85
2022/06/19 14:10:59;;;;;;;12.10;2.40;;;42.50;27.00;;;;;;6258354;28;20112;-85
2022/06/19 14:14:05;;;;;;;7.55;1.88;;;42.60;26.60;;;;;;6255222;28;20585;-85
2022/06/19 14:17:24;;;;;;;9.23;1.45;;;42.70;26.80;;;;;;6233372;28;20046;-85
2022/06/19 14:20:42;;;;;;;5.47;1.50;;;42.80;26.70;;;;;;6235519;28;20045;-84
2022/06/19 14:23:52;;;;;;;26.67;2.33;;;42.90;26.70;;;;;;6227287;28;20643;-85
2022/06/19 14:27:18;;;;;;;18.10;2.00;;;42.70;26.70;;;;;;6224904;28;20076;-84
2022/06/19 14:30:23;;;;;;;12.48;1.63;;;42.60;26.70;;;;;;6229692;28;20050;-84
2022/06/19 14:33:53;;;;;;;7.95;1.38;;;42.70;26.70;;;;;;6228593;28;20057;-85
2022/06/19 14:36:55;;;;;;;7.65;1.83;;;42.70;26.70;;;;;;6218007;28;20169;-85
2022/06/19 14:40:37;;;;;;;12.32;1.90;;;42.70;26.80;;;;;;6228003;28;20128;-85
2022/06/19 14:43:54;;;;;;;10.38;2.58;;;42.70;26.70;;;;;;6237027;28;20052;-84
2022/06/19 14:47:21;;;;;;;8.40;1.63;;;42.70;26.70;;;;;;6252924;28;20061;-85
2022/06/19 14:50:59;;;;;;;3.45;1.02;;;42.70;26.90;;;;;;6245036;28;20143;-85
2022/06/19 14:54:16;;;;;;;14.55;1.95;;;42.60;26.80;;;;;;6253744;28;20057;-85
2022/06/19 14:57:24;;;;;;;7.18;2.03;;;42.60;26.50;;;;;;6253817;28;20505;-84
2022/06/19 15:00:29;;;;;;;8.57;1.65;;;42.60;26.70;;;;;;6252178;28;20108;-84
2022/06/19 15:03:47;;;;;;;9.88;2.17;;;42.50;26.60;;;;;;6253253;28;20124;-85
2022/06/19 15:06:58;;;;;;;8.80;1.70;;;42.50;26.70;;;;;;6254071;28;20414;-85
2022/06/19 15:10:16;;;;;;;3.97;1.23;;;42.70;26.70;;;;;;6253421;28;20052;-85
2022/06/19 15:13:26;;;;;;;10.32;2.28;;;42.90;26.70;;;;;;6245450;28;20076;-85
2022/06/19 15:16:35;;;;;;;11.25;1.65;;;42.90;26.30;;;;;;6230677;28;20519;-85
2022/06/19 15:19:42;;;;;;;9.35;1.45;;;42.90;26.40;;;;;;6230203;28;20109;-85
2022/06/19 15:23:05;;;;;;;6.38;1.70;;;42.90;26.30;;;;;;6229585;28;20100;-85
2022/06/19 15:26:41;;;;;;;6.70;1.58;;;42.80;26.30;;;;;;6229873;28;20411;-85
2022/06/19 15:30:01;;;;;;;11.35;1.85;;;42.70;26.10;;;;;;6200783;28;20136;-85
2022/06/19 15:33:08;;;;;;;10.80;1.55;;;42.70;26.70;;;;;;6229026;28;20415;-85
2022/06/19 15:36:11;;;;;;;12.38;1.75;;;42.70;26.10;;;;;;6229247;28;20192;-85
2022/06/19 15:39:33;;;;;;;11.57;1.75;;;42.60;25.90;;;;;;6229093;28;20128;-85
2022/06/19 15:42:36;;;;;;;10.73;1.63;;;42.40;26.00;;;;;;6230565;28;20049;-85
2022/06/19 15:45:55;;;;;;;13.15;2.30;;;42.30;26.20;;;;;;6230720;28;20057;-85
2022/06/19 15:48:58;;;;;;;10.77;1.88;;;42.20;26.20;;;;;;6227031;28;20073;-85
2022/06/19 15:52:01;;;;;;;7.85;1.55;;;42.20;26.20;;;;;;6230099;28;20050;-85
2022/06/19 15:55:10;;;;;;;9.13;2.25;;;42.10;26.40;;;;;;6228444;28;20160;-85
2022/06/19 15:58:17;;;;;;;13.00;1.85;;;42.10;26.10;;;;;;6227607;28;20056;-85
2022/06/19 16:01:25;;;;;;;10.85;1.35;;;42.00;26.30;;;;;;6228831;28;20054;-86
2022/06/19 16:04:29;;;;;;;8.85;2.00;;;42.00;26.50;;;;;;6243713;28;20459;-84
2022/06/19 16:07:34;;;;;;;7.32;1.85;;;42.00;26.60;;;;;;6252458;28;20051;-85
2022/06/19 16:10:46;;;;;;;9.65;1.80;;;42.00;26.40;;;;;;6271736;28;20116;-87
2022/06/19 16:13:55;;;;;;;8.73;1.10;;;42.00;26.40;;;;;;6259910;28;20042;-86
2022/06/19 16:16:59;;;;;;;5.75;1.67;;;41.90;26.80;;;;;;6235289;28;20045;-85
2022/06/19 16:20:12;;;;;;;5.15;1.27;;;42.00;26.30;;;;;;6230808;28;20049;-86
2022/06/19 16:23:16;;;;;;;10.50;1.70;;;42.00;26.40;;;;;;6234174;28;20061;-86
2022/06/19 16:26:23;;;;;;;7.80;1.38;;;42.00;26.70;;;;;;6233872;28;20046;-85